Riverside, WA (98849)

5:20 PM PDT on April 25, 2017 (GMT -0700)
Omak (North) | | Change Station

Elev 951 ft 48.42 °N, 119.53 °W | Updated 12 seconds ago

Mostly Cloudy
Mostly Cloudy
61.5 °F
Feels Like 61.5 °F
N
0.7
Wind Variable Wind from West
Gusts 3.1 mph

Today
High -- | Low -- °F
--% Chance of Precip.
Yesterday
High -- | Low -- °F
Precip. -- in
Pressure 29.76 in
Visibility 10.0 miles
Clouds Few 2900 ft
Scattered Clouds 8500 ft
Mostly Cloudy 11000 ft
Dew Point 44 °F
Humidity 53%
Rainfall 0.02 in
Snow Depth Not available.
5:48 AM 8:04 PM
Waning Crescent, 0% visible
METAR KOMK 252353Z AUTO 05003KT 10SM FEW029 SCT085 BKN110 16/04 A2975 RMK AO2 RAB16E45 SLP076 P0001 60001 T01560044 10172 20122 58021
Pressure 29.76 in
Visibility 10.0 miles
Clouds Few 2900 ft
Scattered Clouds 8500 ft
Mostly Cloudy 11000 ft
Dew Point 44 °F
Humidity 53%
Rainfall 0.02 in
Snow Depth Not available.
5:48 AM 8:04 PM
Waning Crescent, 0% visible
METAR KOMK 252353Z AUTO 05003KT 10SM FEW029 SCT085 BKN110 16/04 A2975 RMK AO2 RAB16E45 SLP076 P0001 60001 T01560044 10172 20122 58021

Get Severe Weather Alerts

Thanks for signing up!

Be on the lookout for a verification email in your inbox.

You'll start receiving the daily forecast at 8 AM.

×

10-Day Weather Forecast

Almanac

Astronomy

Apr. 25, 2017 Rise Set
Actual Time
Civil Twilight
Nautical Twilight
Astronomical Twilight
Moon
Length of Visible Light
Length of Day
Tomorrow will be .
, % of the Moon is Illuminated

Today's Extremes

State Highs State Lows

Community

WunderPhotos

WunderBlog® & News

Nearby

Air Quality

  Air Quality AQ Index Pollutant
Not available.

Snow Depth

Station Depth Elevation

Earthquake Activity

City Distance Mag. Time & Date
Minimum magnitude displayed is 2.5.

Coastal Water Temperatures

Place Temperature

Stations

Nearby Weather Stations

Station Location Temp. Windchill Dew Point Humidity Wind Precip. Elev Updated Type
                   

Watches & Warnings

There are currently no watches in effect.